createdAt,value
2022-09-13T00:01:08.562Z,12.15
2022-09-13T00:03:42.250Z,12.05
2022-09-13T00:06:16.725Z,12.04
2022-09-13T00:08:45.848Z,12.07
2022-09-13T00:11:17.533Z,12.08
2022-09-13T00:13:46.886Z,12.07
2022-09-13T00:16:20.077Z,12.06
2022-09-13T00:18:48.368Z,12.08
2022-09-13T00:21:19.654Z,12.04
2022-09-13T00:23:50.498Z,11.99
2022-09-13T00:26:21.343Z,11.96
2022-09-13T00:28:51.797Z,11.94
2022-09-13T00:31:21.124Z,11.89
2022-09-13T00:33:49.068Z,11.86
2022-09-13T00:36:17.268Z,11.85
2022-09-13T00:38:45.035Z,11.77
2022-09-13T00:41:17.507Z,11.73
2022-09-13T00:43:55.870Z,11.72
2022-09-13T00:46:36.732Z,11.73
2022-09-13T00:49:19.652Z,11.67
2022-09-13T00:51:58.187Z,11.63
2022-09-13T00:54:31.550Z,11.62
2022-09-13T00:57:02.624Z,11.60
2022-09-13T00:59:42.566Z,11.60
2022-09-13T01:02:11.030Z,11.58
2022-09-13T01:04:39.551Z,11.62
2022-09-13T01:07:11.590Z,11.60
2022-09-13T01:09:44.198Z,11.57
2022-09-13T01:12:46.648Z,11.58
2022-09-13T01:15:14.611Z,11.57
2022-09-13T01:17:44.118Z,11.58
2022-09-13T01:20:13.512Z,11.59
2022-09-13T01:23:01.634Z,11.56
2022-09-13T01:26:08.282Z,11.51
2022-09-13T01:29:09.066Z,11.47
2022-09-13T01:32:03.663Z,11.44
2022-09-13T01:34:40.321Z,11.36
2022-09-13T01:37:15.908Z,11.33
2022-09-13T01:39:53.253Z,11.33
2022-09-13T01:42:33.478Z,11.37
2022-09-13T01:45:28.295Z,11.33
2022-09-13T01:48:03.497Z,11.28
2022-09-13T01:50:43.788Z,11.28
2022-09-13T01:53:27.385Z,11.27
2022-09-13T01:56:06.629Z,11.24
2022-09-13T01:58:58.264Z,11.24
2022-09-13T02:01:33.943Z,11.20
2022-09-13T02:04:08.094Z,11.17
2022-09-13T02:07:00.738Z,11.13
2022-09-13T02:09:34.531Z,11.13
2022-09-13T02:12:12.040Z,11.14
2022-09-13T02:14:43.493Z,11.15
2022-09-13T02:17:23.189Z,11.14
2022-09-13T02:20:16.510Z,11.13
2022-09-13T02:22:49.838Z,11.04
2022-09-13T02:25:21.682Z,11.02
2022-09-13T02:27:52.625Z,11.00
2022-09-13T02:30:22.412Z,11.01
2022-09-13T02:33:07.141Z,11.03
2022-09-13T02:35:50.093Z,10.99
2022-09-13T02:38:33.780Z,10.97
2022-09-13T02:41:18.012Z,10.97
2022-09-13T02:43:53.886Z,10.97
2022-09-13T02:46:52.600Z,10.97
2022-09-13T02:49:27.406Z,10.96
2022-09-13T02:52:24.027Z,10.96
2022-09-13T02:55:01.959Z,10.99
2022-09-13T02:57:41.355Z,11.00
2022-09-13T03:00:10.180Z,10.97
2022-09-13T03:02:41.443Z,10.99
2022-09-13T03:05:10.072Z,10.97
2022-09-13T03:07:38.006Z,10.94
2022-09-13T03:10:13.801Z,10.89
2022-09-13T03:13:27.861Z,10.86
2022-09-13T03:16:26.858Z,10.82
2022-09-13T03:19:00.893Z,10.83
2022-09-13T03:21:55.962Z,10.84
2022-09-13T03:24:38.291Z,10.85
2022-09-13T03:27:32.265Z,10.83
2022-09-13T03:30:07.618Z,10.79
2022-09-13T03:32:44.656Z,10.79
2022-09-13T03:35:37.858Z,10.75
2022-09-13T03:38:13.581Z,10.71
2022-09-13T03:40:52.012Z,10.70
2022-09-13T03:43:35.679Z,10.67
2022-09-13T03:46:12.107Z,10.67
2022-09-13T03:48:42.809Z,10.67
2022-09-13T03:51:11.583Z,10.65
2022-09-13T03:53:46.869Z,10.62
2022-09-13T03:56:20.173Z,10.63
2022-09-13T03:58:48.940Z,10.62
2022-09-13T04:01:24.581Z,10.62
2022-09-13T04:03:56.641Z,10.65
2022-09-13T04:06:25.560Z,10.65
2022-09-13T04:08:53.375Z,10.65
2022-09-13T04:11:21.630Z,10.65
2022-09-13T04:13:49.675Z,10.64
2022-09-13T04:16:17.897Z,10.64
2022-09-13T04:18:45.793Z,10.61
2022-09-13T04:21:13.890Z,10.62
2022-09-13T04:23:41.711Z,10.62
2022-09-13T04:26:09.744Z,10.61
2022-09-13T04:28:38.077Z,10.62
2022-09-13T04:31:05.835Z,10.62
2022-09-13T04:33:33.606Z,10.62
2022-09-13T04:36:02.205Z,10.63
2022-09-13T04:38:32.062Z,10.63
2022-09-13T04:40:59.914Z,10.63
2022-09-13T04:43:27.569Z,10.68
2022-09-13T04:45:55.466Z,10.66
2022-09-13T04:48:23.216Z,10.70
2022-09-13T04:50:50.990Z,10.72
2022-09-13T04:53:19.266Z,10.75
2022-09-13T04:55:47.391Z,10.82
2022-09-13T04:58:15.088Z,10.84
2022-09-13T05:00:43.126Z,10.85
2022-09-13T05:03:11.067Z,10.89
2022-09-13T05:05:38.833Z,10.93
2022-09-13T05:08:06.605Z,10.94
2022-09-13T05:10:34.421Z,11.01
2022-09-13T05:13:02.180Z,11.08
2022-09-13T05:15:29.919Z,11.14
2022-09-13T05:17:58.025Z,11.25
2022-09-13T05:20:25.955Z,11.24
2022-09-13T05:22:55.834Z,11.23
2022-09-13T05:25:26.077Z,11.22
2022-09-13T05:27:54.141Z,11.23
2022-09-13T05:30:21.986Z,11.23
2022-09-13T05:32:49.959Z,11.24
2022-09-13T05:35:18.252Z,11.30
2022-09-13T05:37:46.239Z,11.38
2022-09-13T05:40:14.092Z,11.47
2022-09-13T05:42:42.149Z,11.59
2022-09-13T05:45:10.653Z,11.71
2022-09-13T05:47:38.375Z,11.76
2022-09-13T05:50:12.043Z,11.92
2022-09-13T05:52:44.108Z,12.11
2022-09-13T05:55:11.931Z,12.32
2022-09-13T05:57:39.921Z,12.48
2022-09-13T06:00:08.379Z,12.59
2022-09-13T06:02:36.250Z,12.71
2022-09-13T06:05:04.699Z,12.85
2022-09-13T06:07:32.499Z,13.00
2022-09-13T06:10:00.256Z,13.14
2022-09-13T06:12:28.086Z,13.25
2022-09-13T06:14:55.912Z,13.33
2022-09-13T06:17:23.710Z,13.50
2022-09-13T06:19:51.821Z,13.63
2022-09-13T06:22:20.073Z,13.72
2022-09-13T06:24:47.934Z,13.85
2022-09-13T06:27:15.721Z,14.00
2022-09-13T06:29:43.693Z,14.09
2022-09-13T06:32:11.457Z,14.10
2022-09-13T06:34:39.256Z,14.28
2022-09-13T06:37:07.316Z,14.48
2022-09-13T06:39:35.154Z,14.59
2022-09-13T06:42:03.034Z,14.78
2022-09-13T06:44:31.066Z,14.82
2022-09-13T06:46:58.778Z,14.82
2022-09-13T06:49:26.617Z,14.92
2022-09-13T06:51:54.366Z,15.17
2022-09-13T06:54:22.180Z,15.39
2022-09-13T06:56:50.073Z,15.35
2022-09-13T06:59:17.754Z,15.33
2022-09-13T07:01:45.624Z,15.29
2022-09-13T07:04:16.448Z,15.28
2022-09-13T07:06:47.665Z,15.35
2022-09-13T07:09:19.037Z,15.34
2022-09-13T07:11:48.624Z,15.36
2022-09-13T07:14:19.919Z,15.37
2022-09-13T07:16:48.845Z,15.50
2022-09-13T07:19:20.130Z,15.59
2022-09-13T07:21:49.913Z,15.66
2022-09-13T07:24:18.906Z,15.76
2022-09-13T07:26:47.384Z,15.92
2022-09-13T07:29:19.213Z,16.03
2022-09-13T07:31:49.620Z,16.08
2022-09-13T07:34:23.392Z,16.17
2022-09-13T07:36:52.523Z,16.11
2022-09-13T07:39:22.900Z,16.06
2022-09-13T07:41:53.972Z,16.04
2022-09-13T07:44:22.994Z,16.13
2022-09-13T07:46:50.954Z,16.34
2022-09-13T07:49:19.747Z,16.54
2022-09-13T07:51:51.501Z,16.67
2022-09-13T07:54:20.702Z,16.87
2022-09-13T07:56:51.851Z,17.15
2022-09-13T07:59:20.280Z,17.48
2022-09-13T08:01:51.109Z,17.80
2022-09-13T08:04:24.318Z,17.77
2022-09-13T08:06:52.817Z,17.74
2022-09-13T08:09:20.876Z,17.64
2022-09-13T08:11:53.099Z,17.53
2022-09-13T08:14:23.277Z,17.53
2022-09-13T08:16:59.600Z,17.52
2022-09-13T08:19:27.472Z,17.55
2022-09-13T08:21:55.294Z,17.61
2022-09-13T08:24:23.351Z,17.70
2022-09-13T08:26:55.195Z,17.72
2022-09-13T08:29:23.065Z,17.73
2022-09-13T08:31:52.726Z,17.78
2022-09-13T08:34:21.377Z,17.79
2022-09-13T08:36:49.135Z,17.84
2022-09-13T08:39:17.184Z,17.88
2022-09-13T08:42:03.934Z,17.87
2022-09-13T08:44:45.521Z,17.92
2022-09-13T08:47:28.701Z,18.01
2022-09-13T08:50:13.534Z,18.03
2022-09-13T08:53:06.066Z,18.01
2022-09-13T08:56:08.703Z,17.93
2022-09-13T08:58:46.821Z,17.85
2022-09-13T09:01:19.544Z,17.76
2022-09-13T09:04:32.547Z,17.67
2022-09-13T09:07:11.984Z,17.61
2022-09-13T09:10:01.965Z,17.55
2022-09-13T09:12:39.062Z,17.49
2022-09-13T09:15:24.518Z,17.45
2022-09-13T09:18:12.376Z,17.45
2022-09-13T09:20:42.364Z,17.50
2022-09-13T09:23:31.943Z,17.57
2022-09-13T09:26:20.053Z,17.67
2022-09-13T09:28:54.198Z,17.81
2022-09-13T09:31:48.017Z,17.89
2022-09-13T09:34:18.611Z,17.96
2022-09-13T09:36:51.454Z,17.93
2022-09-13T09:39:19.320Z,17.93
2022-09-13T09:41:47.120Z,17.92
2022-09-13T09:44:22.460Z,17.90
2022-09-13T09:46:56.015Z,17.88
2022-09-13T09:49:54.494Z,17.87
2022-09-13T09:52:28.536Z,17.88
2022-09-13T09:55:03.926Z,17.91
2022-09-13T09:57:52.049Z,17.91
2022-09-13T10:00:22.289Z,17.93
2022-09-13T10:02:54.658Z,17.95
2022-09-13T10:05:24.099Z,17.93
2022-09-13T10:07:55.199Z,17.98
2022-09-13T10:10:30.593Z,18.05
2022-09-13T10:12:59.751Z,18.22
2022-09-13T10:15:33.910Z,18.49
2022-09-13T10:18:42.352Z,18.72
2022-09-13T10:21:27.150Z,18.84
2022-09-13T10:24:21.430Z,19.08
2022-09-13T10:26:49.178Z,19.18
2022-09-13T10:29:18.801Z,19.14
2022-09-13T10:31:50.144Z,19.07
2022-09-13T10:34:23.136Z,19.06
2022-09-13T10:36:56.474Z,19.07
2022-09-13T10:39:26.498Z,19.20
2022-09-13T10:41:58.622Z,19.33
2022-09-13T10:44:29.468Z,19.40
2022-09-13T10:47:01.645Z,19.45
2022-09-13T10:49:44.486Z,19.50
2022-09-13T10:52:33.517Z,19.56
2022-09-13T10:55:19.713Z,19.68
2022-09-13T10:57:49.531Z,19.78
2022-09-13T11:00:21.994Z,19.77
2022-09-13T11:03:14.910Z,19.68
2022-09-13T11:05:51.801Z,19.56
2022-09-13T11:08:42.734Z,19.39
2022-09-13T11:11:17.607Z,19.27
2022-09-13T11:14:07.370Z,19.24
2022-09-13T11:16:47.201Z,19.26
2022-09-13T11:19:47.113Z,19.26
2022-09-13T11:22:47.003Z,19.24
2022-09-13T11:25:39.807Z,19.25
2022-09-13T11:28:23.026Z,19.27
2022-09-13T11:31:19.477Z,19.30
2022-09-13T11:34:09.377Z,19.35
2022-09-13T11:36:49.130Z,19.32
2022-09-13T11:39:22.725Z,19.25
2022-09-13T11:42:19.302Z,19.19
2022-09-13T11:44:55.878Z,19.16
2022-09-13T11:47:37.889Z,19.18
2022-09-13T11:50:39.894Z,19.18
2022-09-13T11:53:10.413Z,19.20
2022-09-13T11:55:41.975Z,19.20
2022-09-13T11:58:18.920Z,19.22
2022-09-13T12:00:52.436Z,19.25
2022-09-13T12:03:31.932Z,19.25
2022-09-13T12:06:11.335Z,19.25
2022-09-13T12:08:46.679Z,19.25
2022-09-13T12:11:27.274Z,19.32
2022-09-13T12:14:15.265Z,19.36
2022-09-13T12:16:48.866Z,19.37
2022-09-13T12:19:23.627Z,19.33
2022-09-13T12:21:55.983Z,19.31
2022-09-13T12:24:49.115Z,19.36
2022-09-13T12:27:48.322Z,19.40
2022-09-13T12:30:24.609Z,19.48
2022-09-13T12:32:58.052Z,19.58
2022-09-13T12:35:36.241Z,19.68
2022-09-13T12:38:42.309Z,19.78
2022-09-13T12:41:47.581Z,19.82
2022-09-13T12:44:15.309Z,19.73
2022-09-13T12:47:11.003Z,19.66
2022-09-13T12:53:26.261Z,19.47
2022-09-13T12:56:02.467Z,19.43
2022-09-13T12:58:38.784Z,19.39
2022-09-13T13:01:09.874Z,19.39
2022-09-13T13:03:59.371Z,19.42
2022-09-13T13:06:31.042Z,19.51
2022-09-13T13:09:05.772Z,19.55
2022-09-13T13:11:47.473Z,19.62
2022-09-13T13:14:48.497Z,19.68
2022-09-13T13:17:36.538Z,19.69
2022-09-13T13:20:42.159Z,19.72
2022-09-13T13:23:18.958Z,19.78
2022-09-13T13:26:05.750Z,19.81
2022-09-13T13:28:46.041Z,19.83
2022-09-13T13:31:32.634Z,19.82
2022-09-13T13:34:06.671Z,19.80
2022-09-13T13:36:40.239Z,19.84
2022-09-13T13:39:28.346Z,19.83
2022-09-13T13:41:59.040Z,19.84
2022-09-13T13:44:26.830Z,19.88
2022-09-13T13:47:14.843Z,19.90
2022-09-13T13:50:04.176Z,19.84
2022-09-13T13:52:50.699Z,19.83
2022-09-13T13:55:28.612Z,19.83
2022-09-13T13:58:03.667Z,19.87
2022-09-13T14:00:35.118Z,19.91
2022-09-13T14:03:02.875Z,19.92
2022-09-13T14:05:46.166Z,19.93
2022-09-13T14:08:23.902Z,20.01
2022-09-13T14:11:14.394Z,20.00
2022-09-13T14:14:20.053Z,19.94
2022-09-13T14:16:47.792Z,19.88
2022-09-13T14:19:24.256Z,19.87
2022-09-13T14:22:16.091Z,19.95
2022-09-13T14:24:48.478Z,19.99
2022-09-13T14:27:37.774Z,20.00
2022-09-13T14:30:22.131Z,20.00
2022-09-13T14:32:54.177Z,19.98
2022-09-13T14:35:34.836Z,19.92
2022-09-13T14:38:17.627Z,19.87
2022-09-13T14:41:16.026Z,19.81
2022-09-13T14:43:45.856Z,19.77
2022-09-13T14:46:23.777Z,19.75
2022-09-13T14:48:57.693Z,19.76
2022-09-13T14:51:33.331Z,19.75
2022-09-13T14:54:11.331Z,19.76
2022-09-13T14:56:46.735Z,19.78
2022-09-13T14:59:33.455Z,19.78
2022-09-13T15:02:27.486Z,19.73
2022-09-13T15:04:58.541Z,19.71
2022-09-13T15:07:38.462Z,19.69
2022-09-13T15:10:32.325Z,19.68
2022-09-13T15:13:00.015Z,19.68
2022-09-13T15:15:33.059Z,19.66
2022-09-13T15:18:21.190Z,19.65
2022-09-13T15:21:04.014Z,19.69
2022-09-13T15:23:41.542Z,19.69
2022-09-13T15:26:21.259Z,19.66
2022-09-13T15:28:48.957Z,19.64
2022-09-13T15:31:25.477Z,19.61
2022-09-13T15:34:18.171Z,19.57
2022-09-13T15:36:47.743Z,19.51
2022-09-13T15:39:20.928Z,19.47
2022-09-13T15:42:03.038Z,19.41
2022-09-13T15:44:32.580Z,19.35
2022-09-13T15:47:04.610Z,19.26
2022-09-13T15:49:33.136Z,19.19
2022-09-13T15:52:03.233Z,19.15
2022-09-13T15:54:35.483Z,19.12
2022-09-13T15:57:07.537Z,19.08
2022-09-13T15:59:35.566Z,19.01
2022-09-13T16:02:17.612Z,18.97
2022-09-13T16:04:45.922Z,18.95
2022-09-13T16:07:14.212Z,18.96
2022-09-13T16:09:42.597Z,18.95
2022-09-13T16:12:11.080Z,18.92
2022-09-13T16:14:39.031Z,18.89
2022-09-13T16:17:19.303Z,18.87
2022-09-13T16:19:47.169Z,18.85
2022-09-13T16:22:15.816Z,18.87
2022-09-13T16:24:43.654Z,18.84
2022-09-13T16:27:16.474Z,18.83
2022-09-13T16:29:45.175Z,18.82
2022-09-13T16:32:13.020Z,18.79
2022-09-13T16:34:40.735Z,18.77
2022-09-13T16:37:08.779Z,18.76
2022-09-13T16:39:36.854Z,18.74
2022-09-13T16:42:05.446Z,18.74
2022-09-13T16:44:33.442Z,18.73
2022-09-13T16:47:01.461Z,18.72
2022-09-13T16:49:29.488Z,18.72
2022-09-13T16:51:59.578Z,18.69
2022-09-13T16:54:30.305Z,18.69
2022-09-13T16:56:58.796Z,18.67
2022-09-13T16:59:26.727Z,18.66
2022-09-13T17:01:54.653Z,18.63
2022-09-13T17:04:22.633Z,18.59
2022-09-13T17:06:50.845Z,18.58
2022-09-13T17:09:21.209Z,18.56
2022-09-13T17:11:48.969Z,18.54
2022-09-13T17:14:18.034Z,18.54
2022-09-13T17:16:49.306Z,18.54
2022-09-13T17:19:23.529Z,18.51
2022-09-13T17:21:52.255Z,18.51
2022-09-13T17:24:20.090Z,18.50
2022-09-13T17:26:48.637Z,18.51
2022-09-13T17:29:16.686Z,18.53
2022-09-13T17:31:44.908Z,18.55
2022-09-13T17:34:14.294Z,18.54
2022-09-13T17:36:42.822Z,18.54
2022-09-13T17:39:11.146Z,18.51
2022-09-13T17:41:39.263Z,18.50
2022-09-13T17:44:07.540Z,18.47
2022-09-13T17:46:35.305Z,18.46
2022-09-13T17:49:03.066Z,18.44
2022-09-13T17:51:32.870Z,18.41
2022-09-13T17:54:06.481Z,18.35
2022-09-13T17:56:44.979Z,18.33
2022-09-13T17:59:16.203Z,18.28
2022-09-13T18:01:47.425Z,18.25
2022-09-13T18:04:17.287Z,18.22
2022-09-13T18:06:45.080Z,18.19
2022-09-13T18:09:15.695Z,18.15
2022-09-13T18:11:43.741Z,18.10
2022-09-13T18:14:17.599Z,18.06
2022-09-13T18:16:46.690Z,18.00
2022-09-13T18:19:14.452Z,17.97
2022-09-13T18:21:42.753Z,17.93
2022-09-13T18:24:10.631Z,17.89
2022-09-13T18:26:38.482Z,17.85
2022-09-13T18:29:10.298Z,17.80
2022-09-13T18:31:40.077Z,17.76
2022-09-13T18:34:14.038Z,17.73
2022-09-13T18:36:42.529Z,17.68
2022-09-13T18:39:19.374Z,17.65
2022-09-13T18:41:48.395Z,17.60
2022-09-13T18:44:17.334Z,17.55
2022-09-13T18:46:46.817Z,17.49
2022-09-13T18:49:15.320Z,17.45
2022-09-13T18:51:45.324Z,17.43
2022-09-13T18:54:16.170Z,17.39
2022-09-13T18:56:45.462Z,17.34
2022-09-13T18:59:13.494Z,17.30
2022-09-13T19:01:43.285Z,17.26
2022-09-13T19:04:17.459Z,17.17
2022-09-13T19:06:56.158Z,17.11
2022-09-13T19:09:24.537Z,17.07
2022-09-13T19:11:53.930Z,16.94
2022-09-13T19:14:27.398Z,16.92
2022-09-13T19:16:57.671Z,16.88
2022-09-13T19:19:25.423Z,16.84
2022-09-13T19:21:54.116Z,16.83
2022-09-13T19:24:22.139Z,16.80
2022-09-13T19:26:52.105Z,16.78
2022-09-13T19:29:22.901Z,16.75
2022-09-13T19:31:53.554Z,16.72
2022-09-13T19:34:23.011Z,16.70
2022-09-13T19:36:57.590Z,16.67
2022-09-13T19:39:30.002Z,16.63
2022-09-13T19:42:00.531Z,16.56
2022-09-13T19:44:28.894Z,16.53
2022-09-13T19:47:36.356Z,16.50
2022-09-13T19:49:44.898Z,16.45
2022-09-13T19:52:12.664Z,16.42
2022-09-13T19:54:40.398Z,16.38
2022-09-13T19:57:10.011Z,16.35
2022-09-13T19:59:38.170Z,16.32
2022-09-13T20:02:06.764Z,16.31
2022-09-13T20:04:34.721Z,16.29
2022-09-13T20:07:02.795Z,16.22
2022-09-13T20:09:30.627Z,16.17
2022-09-13T20:12:00.509Z,16.16
2022-09-13T20:14:29.069Z,16.10
2022-09-13T20:16:57.287Z,16.06
2022-09-13T20:19:44.763Z,16.03
2022-09-13T20:22:14.395Z,15.97
2022-09-13T20:24:42.185Z,15.93
2022-09-13T20:27:10.551Z,15.90
2022-09-13T20:29:39.220Z,15.86
2022-09-13T20:32:08.114Z,15.78
2022-09-13T20:34:37.879Z,15.77
2022-09-13T20:37:05.749Z,15.74
2022-09-13T20:39:33.625Z,15.71
2022-09-13T20:42:01.453Z,15.64
2022-09-13T20:44:29.230Z,15.60
2022-09-13T20:46:57.148Z,15.60
2022-09-13T20:49:25.786Z,15.58
2022-09-13T20:51:53.538Z,15.57
2022-09-13T20:54:21.441Z,15.56
2022-09-13T20:56:49.322Z,15.54
2022-09-13T20:59:17.141Z,15.52
2022-09-13T21:01:45.087Z,15.49
2022-09-13T21:04:12.933Z,15.45
2022-09-13T21:07:02.619Z,15.41
2022-09-13T21:09:31.210Z,15.40
2022-09-13T21:11:59.315Z,15.31
2022-09-13T21:14:27.161Z,15.29
2022-09-13T21:16:56.833Z,15.32
2022-09-13T21:19:26.676Z,15.34
2022-09-13T21:21:55.050Z,15.35
2022-09-13T21:24:22.747Z,15.33
2022-09-13T21:26:50.540Z,15.31
2022-09-13T21:29:18.325Z,15.28
2022-09-13T21:31:46.136Z,15.22
2022-09-13T21:34:17.261Z,15.22
2022-09-13T21:36:46.433Z,15.18
2022-09-13T21:39:16.300Z,15.16
2022-09-13T21:41:44.531Z,15.15
2022-09-13T21:44:12.340Z,15.14
2022-09-13T21:46:41.237Z,15.12
2022-09-13T21:49:12.688Z,15.12
2022-09-13T21:51:44.613Z,15.10
2022-09-13T21:54:15.452Z,15.08
2022-09-13T21:56:49.687Z,15.04
2022-09-13T21:59:19.186Z,15.00
2022-09-13T22:01:51.261Z,14.97
2022-09-13T22:04:22.151Z,14.94
2022-09-13T22:06:53.631Z,14.91
2022-09-13T22:09:24.754Z,14.88
2022-09-13T22:11:52.941Z,14.88
2022-09-13T22:14:21.950Z,14.88
2022-09-13T22:16:52.852Z,14.84
2022-09-13T22:19:24.445Z,14.83
2022-09-13T22:21:59.410Z,14.84
2022-09-13T22:24:32.040Z,14.84
2022-09-13T22:27:00.267Z,14.83
2022-09-13T22:29:29.337Z,14.81
2022-09-13T22:31:57.083Z,14.78
2022-09-13T22:34:26.426Z,14.77
2022-09-13T22:36:55.433Z,14.76
2022-09-13T22:39:24.134Z,14.73
2022-09-13T22:41:52.733Z,14.67
2022-09-13T22:44:20.585Z,14.64
2022-09-13T22:46:48.736Z,14.61
2022-09-13T22:49:18.696Z,14.60
2022-09-13T22:51:48.342Z,14.62
2022-09-13T22:54:18.135Z,14.62
2022-09-13T22:56:46.377Z,14.66
2022-09-13T22:59:17.060Z,14.71
2022-09-13T23:01:45.912Z,14.78
2022-09-13T23:04:14.341Z,14.84
2022-09-13T23:06:44.095Z,14.88
2022-09-13T23:09:16.780Z,14.93
2022-09-13T23:11:45.492Z,14.96
2022-09-13T23:14:15.846Z,14.95
2022-09-13T23:16:46.200Z,14.92
2022-09-13T23:19:19.710Z,14.89
2022-09-13T23:21:47.490Z,14.87
2022-09-13T23:24:17.824Z,14.87
2022-09-13T23:26:47.045Z,14.88
2022-09-13T23:29:18.867Z,14.88
2022-09-13T23:31:47.686Z,14.91
2022-09-13T23:34:17.792Z,14.86
2022-09-13T23:36:46.558Z,14.85
2022-09-13T23:39:19.011Z,14.81
2022-09-13T23:41:49.200Z,14.79
2022-09-13T23:44:17.496Z,14.77
2022-09-13T23:46:45.591Z,14.76
2022-09-13T23:49:14.783Z,14.74
2022-09-13T23:51:43.168Z,14.70
2022-09-13T23:54:13.243Z,14.68
2022-09-13T23:56:41.780Z,14.65
2022-09-13T23:59:11.688Z,14.64
